Raleigh Durham International Airport Raleigh,Durham US
ICAO: KRDU
IATA: RDU
Category: Large
Scheduled Services: Yes

Elevation: 435 ft
TransAlt. 18000 ft.

Airport Communications:
APP:124.8
ATIS:123.8
CLNC DEL:120.1
DEP:125.3
GND:121.7
ARNG OPS:49.15
RDO:122.2
TWR:119.3
UNICOM:122.95

KRDU Zoom In..

Runways:

(A) RW 05L length 10000 ft width 150 ft
ILS 109.10 / hdg 52

(B) RW 05R length 7500 ft width 150 ft
ILS 109.50 / hdg 52

(C) RW 14 length 3570 ft width 100 ft
---- / hdg 142

(D) RW 23L length 7500 ft width 150 ft
ILS 108.50 / hdg 232

(E) RW 23R length 10000 ft width 150 ft
ILS 111.70 / hdg 232

(F) RW 32 length 3570 ft width 100 ft
---- / hdg 322

Location; KRDU
Day. 04 / Time. 01.51 Zulu
* Altimeter: 29.96
* Temperature: 22° c. 71.6°f.
* Wind from: 050° Speed 08 kn.
Dewpoint: 21° c.
Visibility: 5 Statute Miles.
Clouds: Few 600 ft.
Clouds: Broken 2100 ft.
Clouds: Overcast 7000 ft.
Conditions: Light Rain.Conditions: Mist.

KRDU 040151Z 05008KT 5SM -RA BR FEW006 BKN021 OVC070 22/21 A2996 RMK AO2 RAE03B11 SLP140 P0006 T02170211 $

Going to: --> -->


Wind From 050°
Speed 08 kn.

 
 
jpsmedia worldairports.se 2020   terms of use